sensor_id;sensor_type;location;lat;lon;timestamp;P1;durP1;ratioP1;P2;durP2;ratioP2
51146;SDS011;37207;53.060;18.726;2023-05-07T00:00:05;17.50;;;15.60;;
51146;SDS011;37207;53.060;18.726;2023-05-07T00:02:57;16.60;;;10.10;;
51146;SDS011;37207;53.060;18.726;2023-05-07T00:05:23;18.30;;;16.40;;
51146;SDS011;37207;53.060;18.726;2023-05-07T00:07:50;21.00;;;17.40;;
51146;SDS011;37207;53.060;18.726;2023-05-07T00:10:19;21.90;;;16.60;;
51146;SDS011;37207;53.060;18.726;2023-05-07T00:12:45;20.60;;;10.60;;
51146;SDS011;37207;53.060;18.726;2023-05-07T00:15:12;19.90;;;11.30;;
51146;SDS011;37207;53.060;18.726;2023-05-07T00:17:39;18.50;;;12.90;;
51146;SDS011;37207;53.060;18.726;2023-05-07T00:20:06;8.70;;;7.80;;
51146;SDS011;37207;53.060;18.726;2023-05-07T00:22:33;12.70;;;11.70;;
51146;SDS011;37207;53.060;18.726;2023-05-07T00:25:00;17.50;;;13.30;;
51146;SDS011;37207;53.060;18.726;2023-05-07T00:27:26;15.50;;;14.00;;
51146;SDS011;37207;53.060;18.726;2023-05-07T00:29:53;20.60;;;16.90;;
51146;SDS011;37207;53.060;18.726;2023-05-07T00:32:19;19.70;;;17.60;;
51146;SDS011;37207;53.060;18.726;2023-05-07T00:34:46;18.60;;;15.90;;
51146;SDS011;37207;53.060;18.726;2023-05-07T00:37:12;15.40;;;9.30;;
51146;SDS011;37207;53.060;18.726;2023-05-07T00:39:39;18.20;;;9.40;;
51146;SDS011;37207;53.060;18.726;2023-05-07T00:42:06;18.90;;;11.60;;
51146;SDS011;37207;53.060;18.726;2023-05-07T00:44:32;17.20;;;15.10;;
51146;SDS011;37207;53.060;18.726;2023-05-07T00:46:59;15.90;;;14.10;;
51146;SDS011;37207;53.060;18.726;2023-05-07T00:49:38;16.90;;;10.30;;
51146;SDS011;37207;53.060;18.726;2023-05-07T00:52:07;16.10;;;9.30;;
51146;SDS011;37207;53.060;18.726;2023-05-07T00:54:36;13.80;;;9.20;;
51146;SDS011;37207;53.060;18.726;2023-05-07T00:57:03;16.60;;;14.80;;
51146;SDS011;37207;53.060;18.726;2023-05-07T00:59:30;15.40;;;12.80;;
51146;SDS011;37207;53.060;18.726;2023-05-07T01:01:58;29.80;;;9.60;;
51146;SDS011;37207;53.060;18.726;2023-05-07T01:04:25;11.70;;;9.10;;
51146;SDS011;37207;53.060;18.726;2023-05-07T01:06:53;18.50;;;10.30;;
51146;SDS011;37207;53.060;18.726;2023-05-07T01:09:25;13.90;;;12.60;;
51146;SDS011;37207;53.060;18.726;2023-05-07T01:11:53;14.80;;;10.40;;
51146;SDS011;37207;53.060;18.726;2023-05-07T01:14:20;12.80;;;9.90;;
51146;SDS011;37207;53.060;18.726;2023-05-07T01:16:48;22.00;;;16.40;;
51146;SDS011;37207;53.060;18.726;2023-05-07T01:19:18;16.20;;;10.40;;
51146;SDS011;37207;53.060;18.726;2023-05-07T01:21:46;17.20;;;10.20;;
51146;SDS011;37207;53.060;18.726;2023-05-07T01:24:15;17.30;;;10.80;;
51146;SDS011;37207;53.060;18.726;2023-05-07T01:26:42;16.80;;;9.50;;
51146;SDS011;37207;53.060;18.726;2023-05-07T01:29:12;24.80;;;18.40;;
51146;SDS011;37207;53.060;18.726;2023-05-07T01:31:39;17.30;;;11.00;;
51146;SDS011;37207;53.060;18.726;2023-05-07T01:34:08;20.80;;;12.40;;
51146;SDS011;37207;53.060;18.726;2023-05-07T01:36:38;16.50;;;11.50;;
51146;SDS011;37207;53.060;18.726;2023-05-07T01:39:06;17.50;;;10.40;;
51146;SDS011;37207;53.060;18.726;2023-05-07T01:41:33;21.20;;;16.80;;
51146;SDS011;37207;53.060;18.726;2023-05-07T01:44:01;15.30;;;11.40;;
51146;SDS011;37207;53.060;18.726;2023-05-07T01:46:29;18.30;;;9.60;;
51146;SDS011;37207;53.060;18.726;2023-05-07T01:48:57;18.00;;;11.90;;
51146;SDS011;37207;53.060;18.726;2023-05-07T01:51:24;22.60;;;16.40;;
51146;SDS011;37207;53.060;18.726;2023-05-07T01:53:52;18.30;;;16.50;;
51146;SDS011;37207;53.060;18.726;2023-05-07T01:56:19;18.00;;;10.20;;
51146;SDS011;37207;53.060;18.726;2023-05-07T01:58:47;18.00;;;9.20;;
51146;SDS011;37207;53.060;18.726;2023-05-07T02:01:14;16.00;;;13.90;;
51146;SDS011;37207;53.060;18.726;2023-05-07T02:03:41;13.50;;;8.70;;
51146;SDS011;37207;53.060;18.726;2023-05-07T02:06:11;11.20;;;9.70;;
51146;SDS011;37207;53.060;18.726;2023-05-07T02:08:39;14.60;;;9.50;;
51146;SDS011;37207;53.060;18.726;2023-05-07T02:11:06;23.10;;;18.00;;
51146;SDS011;37207;53.060;18.726;2023-05-07T02:13:34;28.80;;;12.10;;
51146;SDS011;37207;53.060;18.726;2023-05-07T02:16:01;19.60;;;11.50;;
51146;SDS011;37207;53.060;18.726;2023-05-07T02:18:28;21.10;;;12.10;;
51146;SDS011;37207;53.060;18.726;2023-05-07T02:20:55;15.40;;;9.90;;
51146;SDS011;37207;53.060;18.726;2023-05-07T02:23:22;29.80;;;12.80;;
51146;SDS011;37207;53.060;18.726;2023-05-07T02:25:49;22.20;;;17.50;;
51146;SDS011;37207;53.060;18.726;2023-05-07T02:28:15;24.70;;;12.00;;
51146;SDS011;37207;53.060;18.726;2023-05-07T02:30:49;19.00;;;11.80;;
51146;SDS011;37207;53.060;18.726;2023-05-07T02:33:17;26.60;;;13.00;;
51146;SDS011;37207;53.060;18.726;2023-05-07T02:35:43;21.80;;;11.00;;
51146;SDS011;37207;53.060;18.726;2023-05-07T02:38:11;19.10;;;16.40;;
51146;SDS011;37207;53.060;18.726;2023-05-07T02:40:38;27.00;;;13.80;;
51146;SDS011;37207;53.060;18.726;2023-05-07T02:43:06;24.10;;;12.90;;
51146;SDS011;37207;53.060;18.726;2023-05-07T02:45:33;20.10;;;10.90;;
51146;SDS011;37207;53.060;18.726;2023-05-07T02:48:00;21.00;;;10.20;;
51146;SDS011;37207;53.060;18.726;2023-05-07T02:50:26;23.90;;;12.30;;
51146;SDS011;37207;53.060;18.726;2023-05-07T02:52:53;24.80;;;11.20;;
51146;SDS011;37207;53.060;18.726;2023-05-07T02:55:20;29.20;;;10.60;;
51146;SDS011;37207;53.060;18.726;2023-05-07T02:57:47;21.60;;;10.30;;
51146;SDS011;37207;53.060;18.726;2023-05-07T03:00:15;19.40;;;9.90;;
51146;SDS011;37207;53.060;18.726;2023-05-07T03:02:49;22.20;;;10.50;;
51146;SDS011;37207;53.060;18.726;2023-05-07T03:05:15;16.40;;;10.10;;
51146;SDS011;37207;53.060;18.726;2023-05-07T03:07:42;16.30;;;9.20;;
51146;SDS011;37207;53.060;18.726;2023-05-07T03:10:11;14.70;;;8.70;;
51146;SDS011;37207;53.060;18.726;2023-05-07T03:12:38;16.20;;;14.50;;
51146;SDS011;37207;53.060;18.726;2023-05-07T03:15:05;12.50;;;8.90;;
51146;SDS011;37207;53.060;18.726;2023-05-07T03:17:32;13.20;;;8.40;;
51146;SDS011;37207;53.060;18.726;2023-05-07T03:19:59;11.70;;;8.00;;
51146;SDS011;37207;53.060;18.726;2023-05-07T03:22:26;13.10;;;8.60;;
51146;SDS011;37207;53.060;18.726;2023-05-07T03:24:52;15.80;;;8.40;;
51146;SDS011;37207;53.060;18.726;2023-05-07T03:27:19;10.40;;;8.20;;
51146;SDS011;37207;53.060;18.726;2023-05-07T03:29:45;15.40;;;9.20;;
51146;SDS011;37207;53.060;18.726;2023-05-07T03:32:12;9.40;;;7.30;;
51146;SDS011;37207;53.060;18.726;2023-05-07T03:34:39;16.70;;;12.60;;
51146;SDS011;37207;53.060;18.726;2023-05-07T03:37:06;16.20;;;9.50;;
51146;SDS011;37207;53.060;18.726;2023-05-07T03:39:33;12.20;;;9.00;;
51146;SDS011;37207;53.060;18.726;2023-05-07T03:42:00;13.90;;;9.90;;
51146;SDS011;37207;53.060;18.726;2023-05-07T03:44:27;30.10;;;16.70;;
51146;SDS011;37207;53.060;18.726;2023-05-07T03:46:54;14.40;;;10.60;;
51146;SDS011;37207;53.060;18.726;2023-05-07T03:49:21;19.00;;;9.90;;
51146;SDS011;37207;53.060;18.726;2023-05-07T03:51:48;19.20;;;9.90;;
51146;SDS011;37207;53.060;18.726;2023-05-07T03:54:15;13.00;;;8.80;;
51146;SDS011;37207;53.060;18.726;2023-05-07T03:56:43;10.00;;;7.90;;
51146;SDS011;37207;53.060;18.726;2023-05-07T03:59:10;17.20;;;9.80;;
51146;SDS011;37207;53.060;18.726;2023-05-07T04:01:38;13.40;;;12.20;;
51146;SDS011;37207;53.060;18.726;2023-05-07T04:04:05;11.70;;;9.40;;
51146;SDS011;37207;53.060;18.726;2023-05-07T04:06:33;18.20;;;10.80;;
51146;SDS011;37207;53.060;18.726;2023-05-07T04:08:59;16.80;;;10.70;;
51146;SDS011;37207;53.060;18.726;2023-05-07T04:11:26;23.60;;;15.70;;
51146;SDS011;37207;53.060;18.726;2023-05-07T04:13:53;25.40;;;15.60;;
51146;SDS011;37207;53.060;18.726;2023-05-07T04:16:21;10.80;;;9.50;;
51146;SDS011;37207;53.060;18.726;2023-05-07T04:18:48;19.30;;;15.80;;
51146;SDS011;37207;53.060;18.726;2023-05-07T04:21:15;25.30;;;10.50;;
51146;SDS011;37207;53.060;18.726;2023-05-07T04:23:43;15.60;;;11.40;;
51146;SDS011;37207;53.060;18.726;2023-05-07T04:26:11;16.80;;;14.40;;
51146;SDS011;37207;53.060;18.726;2023-05-07T04:28:40;19.50;;;13.70;;
51146;SDS011;37207;53.060;18.726;2023-05-07T04:31:07;21.40;;;13.30;;
51146;SDS011;37207;53.060;18.726;2023-05-07T04:33:34;21.10;;;13.80;;
51146;SDS011;37207;53.060;18.726;2023-05-07T04:36:01;18.40;;;13.90;;
51146;SDS011;37207;53.060;18.726;2023-05-07T04:38:29;15.60;;;11.70;;
51146;SDS011;37207;53.060;18.726;2023-05-07T04:41:02;17.40;;;14.10;;
51146;SDS011;37207;53.060;18.726;2023-05-07T04:43:30;18.00;;;14.50;;
51146;SDS011;37207;53.060;18.726;2023-05-07T04:45:57;18.20;;;15.20;;
51146;SDS011;37207;53.060;18.726;2023-05-07T04:48:24;14.60;;;13.20;;
51146;SDS011;37207;53.060;18.726;2023-05-07T04:50:53;12.90;;;11.80;;
51146;SDS011;37207;53.060;18.726;2023-05-07T04:53:19;11.10;;;10.20;;
51146;SDS011;37207;53.060;18.726;2023-05-07T04:55:48;13.80;;;11.80;;
51146;SDS011;37207;53.060;18.726;2023-05-07T04:58:15;11.90;;;10.80;;
51146;SDS011;37207;53.060;18.726;2023-05-07T05:00:42;13.10;;;10.90;;
51146;SDS011;37207;53.060;18.726;2023-05-07T05:03:10;11.40;;;10.20;;
51146;SDS011;37207;53.060;18.726;2023-05-07T05:05:38;10.60;;;9.10;;
51146;SDS011;37207;53.060;18.726;2023-05-07T05:08:04;11.00;;;7.60;;
51146;SDS011;37207;53.060;18.726;2023-05-07T05:10:32;8.40;;;7.60;;
51146;SDS011;37207;53.060;18.726;2023-05-07T05:12:58;8.40;;;7.50;;
51146;SDS011;37207;53.060;18.726;2023-05-07T05:15:26;8.50;;;7.70;;
51146;SDS011;37207;53.060;18.726;2023-05-07T05:17:52;9.00;;;8.20;;
51146;SDS011;37207;53.060;18.726;2023-05-07T05:20:19;9.50;;;8.20;;
51146;SDS011;37207;53.060;18.726;2023-05-07T05:22:47;9.70;;;7.80;;
51146;SDS011;37207;53.060;18.726;2023-05-07T05:25:14;8.30;;;7.50;;
51146;SDS011;37207;53.060;18.726;2023-05-07T05:27:40;8.10;;;7.40;;
51146;SDS011;37207;53.060;18.726;2023-05-07T05:30:07;8.10;;;7.40;;
51146;SDS011;37207;53.060;18.726;2023-05-07T05:32:34;8.00;;;7.20;;
51146;SDS011;37207;53.060;18.726;2023-05-07T05:35:01;8.50;;;7.70;;
51146;SDS011;37207;53.060;18.726;2023-05-07T05:37:29;7.80;;;7.10;;
51146;SDS011;37207;53.060;18.726;2023-05-07T05:39:58;7.80;;;7.10;;
51146;SDS011;37207;53.060;18.726;2023-05-07T05:42:26;7.40;;;6.90;;
51146;SDS011;37207;53.060;18.726;2023-05-07T05:44:52;10.00;;;7.30;;
51146;SDS011;37207;53.060;18.726;2023-05-07T05:47:19;8.60;;;7.80;;
51146;SDS011;37207;53.060;18.726;2023-05-07T05:49:46;12.20;;;8.10;;
51146;SDS011;37207;53.060;18.726;2023-05-07T05:52:15;13.20;;;7.60;;
51146;SDS011;37207;53.060;18.726;2023-05-07T05:54:43;12.70;;;7.60;;
51146;SDS011;37207;53.060;18.726;2023-05-07T05:57:09;7.50;;;6.70;;
51146;SDS011;37207;53.060;18.726;2023-05-07T05:59:36;10.80;;;6.90;;
51146;SDS011;37207;53.060;18.726;2023-05-07T06:02:03;17.50;;;7.10;;
51146;SDS011;37207;53.060;18.726;2023-05-07T06:04:30;8.60;;;7.80;;
51146;SDS011;37207;53.060;18.726;2023-05-07T06:06:57;8.70;;;7.90;;
51146;SDS011;37207;53.060;18.726;2023-05-07T06:09:24;8.30;;;7.70;;
51146;SDS011;37207;53.060;18.726;2023-05-07T06:11:51;8.80;;;7.90;;
51146;SDS011;37207;53.060;18.726;2023-05-07T06:14:18;8.60;;;7.50;;
51146;SDS011;37207;53.060;18.726;2023-05-07T06:16:44;10.00;;;8.30;;
51146;SDS011;37207;53.060;18.726;2023-05-07T06:19:11;9.40;;;8.50;;
51146;SDS011;37207;53.060;18.726;2023-05-07T06:21:38;9.90;;;9.10;;
51146;SDS011;37207;53.060;18.726;2023-05-07T06:24:06;8.70;;;8.00;;
51146;SDS011;37207;53.060;18.726;2023-05-07T06:26:33;9.60;;;8.90;;
51146;SDS011;37207;53.060;18.726;2023-05-07T06:29:00;8.70;;;8.10;;
51146;SDS011;37207;53.060;18.726;2023-05-07T06:31:29;9.20;;;8.30;;
51146;SDS011;37207;53.060;18.726;2023-05-07T06:34:05;10.40;;;8.90;;
51146;SDS011;37207;53.060;18.726;2023-05-07T06:36:36;11.70;;;8.50;;
51146;SDS011;37207;53.060;18.726;2023-05-07T06:39:08;9.10;;;8.40;;
51146;SDS011;37207;53.060;18.726;2023-05-07T06:41:36;9.30;;;8.60;;
51146;SDS011;37207;53.060;18.726;2023-05-07T06:44:06;9.30;;;8.60;;
51146;SDS011;37207;53.060;18.726;2023-05-07T06:49:13;9.10;;;8.10;;
51146;SDS011;37207;53.060;18.726;2023-05-07T06:51:41;8.40;;;7.80;;
51146;SDS011;37207;53.060;18.726;2023-05-07T06:54:07;8.50;;;7.70;;
51146;SDS011;37207;53.060;18.726;2023-05-07T06:56:36;9.40;;;8.50;;
51146;SDS011;37207;53.060;18.726;2023-05-07T06:59:03;8.90;;;7.30;;
51146;SDS011;37207;53.060;18.726;2023-05-07T07:01:33;8.20;;;7.20;;
51146;SDS011;37207;53.060;18.726;2023-05-07T07:04:00;8.00;;;6.60;;
51146;SDS011;37207;53.060;18.726;2023-05-07T07:06:27;6.70;;;6.10;;
51146;SDS011;37207;53.060;18.726;2023-05-07T07:08:54;8.70;;;6.00;;
51146;SDS011;37207;53.060;18.726;2023-05-07T07:11:20;7.80;;;6.20;;
51146;SDS011;37207;53.060;18.726;2023-05-07T07:13:47;7.10;;;6.40;;
51146;SDS011;37207;53.060;18.726;2023-05-07T07:16:13;11.10;;;6.30;;
51146;SDS011;37207;53.060;18.726;2023-05-07T07:18:40;8.50;;;6.10;;
51146;SDS011;37207;53.060;18.726;2023-05-07T07:21:07;5.90;;;5.50;;
51146;SDS011;37207;53.060;18.726;2023-05-07T07:23:34;7.30;;;6.20;;
51146;SDS011;37207;53.060;18.726;2023-05-07T07:26:01;6.10;;;5.50;;
51146;SDS011;37207;53.060;18.726;2023-05-07T07:28:27;6.70;;;5.20;;
51146;SDS011;37207;53.060;18.726;2023-05-07T07:30:54;13.80;;;6.10;;
51146;SDS011;37207;53.060;18.726;2023-05-07T07:33:21;9.50;;;5.90;;
51146;SDS011;37207;53.060;18.726;2023-05-07T07:35:47;7.00;;;5.60;;
51146;SDS011;37207;53.060;18.726;2023-05-07T07:38:14;5.90;;;5.30;;
51146;SDS011;37207;53.060;18.726;2023-05-07T07:40:41;5.70;;;5.20;;
51146;SDS011;37207;53.060;18.726;2023-05-07T07:43:11;4.90;;;4.30;;
51146;SDS011;37207;53.060;18.726;2023-05-07T07:45:37;7.70;;;5.30;;
51146;SDS011;37207;53.060;18.726;2023-05-07T07:48:05;7.70;;;4.90;;
51146;SDS011;37207;53.060;18.726;2023-05-07T07:50:33;5.30;;;4.80;;
51146;SDS011;37207;53.060;18.726;2023-05-07T07:52:59;5.20;;;4.70;;
51146;SDS011;37207;53.060;18.726;2023-05-07T07:55:27;5.10;;;4.50;;
51146;SDS011;37207;53.060;18.726;2023-05-07T07:57:53;5.60;;;4.80;;
51146;SDS011;37207;53.060;18.726;2023-05-07T08:00:21;6.20;;;5.00;;
51146;SDS011;37207;53.060;18.726;2023-05-07T08:02:50;4.90;;;4.60;;
51146;SDS011;37207;53.060;18.726;2023-05-07T08:05:21;6.50;;;4.80;;
51146;SDS011;37207;53.060;18.726;2023-05-07T08:07:49;4.70;;;4.30;;
51146;SDS011;37207;53.060;18.726;2023-05-07T08:10:22;5.20;;;4.50;;
51146;SDS011;37207;53.060;18.726;2023-05-07T08:12:53;5.00;;;3.90;;
51146;SDS011;37207;53.060;18.726;2023-05-07T08:15:19;4.80;;;4.40;;
51146;SDS011;37207;53.060;18.726;2023-05-07T08:17:47;4.30;;;4.00;;
51146;SDS011;37207;53.060;18.726;2023-05-07T08:20:14;7.60;;;4.10;;
51146;SDS011;37207;53.060;18.726;2023-05-07T08:22:40;4.60;;;4.00;;
51146;SDS011;37207;53.060;18.726;2023-05-07T08:25:07;4.40;;;4.00;;
51146;SDS011;37207;53.060;18.726;2023-05-07T08:27:35;4.10;;;3.80;;
51146;SDS011;37207;53.060;18.726;2023-05-07T08:30:02;5.90;;;3.40;;
51146;SDS011;37207;53.060;18.726;2023-05-07T08:32:30;6.50;;;3.50;;
51146;SDS011;37207;53.060;18.726;2023-05-07T08:34:56;4.60;;;3.70;;
51146;SDS011;37207;53.060;18.726;2023-05-07T08:37:23;4.30;;;3.70;;
51146;SDS011;37207;53.060;18.726;2023-05-07T08:39:50;4.40;;;2.90;;
51146;SDS011;37207;53.060;18.726;2023-05-07T08:42:20;3.60;;;3.30;;
51146;SDS011;37207;53.060;18.726;2023-05-07T08:44:49;3.90;;;3.60;;
51146;SDS011;37207;53.060;18.726;2023-05-07T08:47:19;3.80;;;3.30;;
51146;SDS011;37207;53.060;18.726;2023-05-07T08:49:56;3.80;;;3.40;;
51146;SDS011;37207;53.060;18.726;2023-05-07T08:52:24;4.50;;;3.60;;
51146;SDS011;37207;53.060;18.726;2023-05-07T08:54:51;3.70;;;3.40;;
51146;SDS011;37207;53.060;18.726;2023-05-07T08:57:18;3.90;;;3.00;;
51146;SDS011;37207;53.060;18.726;2023-05-07T08:59:47;4.60;;;3.30;;
51146;SDS011;37207;53.060;18.726;2023-05-07T09:02:13;3.50;;;3.30;;
51146;SDS011;37207;53.060;18.726;2023-05-07T09:04:41;4.80;;;3.00;;
51146;SDS011;37207;53.060;18.726;2023-05-07T09:07:08;3.60;;;3.30;;
51146;SDS011;37207;53.060;18.726;2023-05-07T09:09:38;3.60;;;3.30;;
51146;SDS011;37207;53.060;18.726;2023-05-07T09:12:05;4.30;;;3.30;;
51146;SDS011;37207;53.060;18.726;2023-05-07T09:14:33;3.90;;;3.60;;
51146;SDS011;37207;53.060;18.726;2023-05-07T09:17:00;6.10;;;2.90;;
51146;SDS011;37207;53.060;18.726;2023-05-07T09:19:27;3.80;;;3.50;;
51146;SDS011;37207;53.060;18.726;2023-05-07T09:22:02;3.20;;;2.50;;
51146;SDS011;37207;53.060;18.726;2023-05-07T09:24:33;3.70;;;3.10;;
51146;SDS011;37207;53.060;18.726;2023-05-07T09:27:03;3.20;;;2.40;;
51146;SDS011;37207;53.060;18.726;2023-05-07T09:29:31;4.10;;;2.30;;
51146;SDS011;37207;53.060;18.726;2023-05-07T09:32:02;3.60;;;2.90;;
51146;SDS011;37207;53.060;18.726;2023-05-07T09:34:31;2.60;;;2.40;;
51146;SDS011;37207;53.060;18.726;2023-05-07T09:37:01;3.80;;;2.30;;
51146;SDS011;37207;53.060;18.726;2023-05-07T09:39:42;5.10;;;2.80;;
51146;SDS011;37207;53.060;18.726;2023-05-07T09:42:13;5.10;;;2.70;;
51146;SDS011;37207;53.060;18.726;2023-05-07T09:44:43;3.00;;;2.70;;
51146;SDS011;37207;53.060;18.726;2023-05-07T09:47:14;5.50;;;2.50;;
51146;SDS011;37207;53.060;18.726;2023-05-07T09:49:46;5.20;;;2.70;;
51146;SDS011;37207;53.060;18.726;2023-05-07T09:52:15;2.60;;;2.40;;
51146;SDS011;37207;53.060;18.726;2023-05-07T09:54:46;4.70;;;2.30;;
51146;SDS011;37207;53.060;18.726;2023-05-07T09:57:13;8.60;;;2.50;;
51146;SDS011;37207;53.060;18.726;2023-05-07T09:59:42;3.00;;;2.80;;
51146;SDS011;37207;53.060;18.726;2023-05-07T10:02:13;3.40;;;3.10;;
51146;SDS011;37207;53.060;18.726;2023-05-07T10:04:46;3.00;;;2.60;;
51146;SDS011;37207;53.060;18.726;2023-05-07T10:07:15;3.90;;;2.50;;
51146;SDS011;37207;53.060;18.726;2023-05-07T10:09:42;10.10;;;2.60;;
51146;SDS011;37207;53.060;18.726;2023-05-07T10:12:15;2.40;;;2.30;;
51146;SDS011;37207;53.060;18.726;2023-05-07T10:14:43;2.40;;;2.10;;
51146;SDS011;37207;53.060;18.726;2023-05-07T10:17:12;6.20;;;2.10;;
51146;SDS011;37207;53.060;18.726;2023-05-07T10:19:44;2.50;;;2.30;;
51146;SDS011;37207;53.060;18.726;2023-05-07T10:22:11;1.50;;;1.30;;
51146;SDS011;37207;53.060;18.726;2023-05-07T10:24:43;2.50;;;2.30;;
51146;SDS011;37207;53.060;18.726;2023-05-07T10:27:16;2.40;;;2.00;;
51146;SDS011;37207;53.060;18.726;2023-05-07T10:30:04;3.00;;;2.00;;
51146;SDS011;37207;53.060;18.726;2023-05-07T10:35:02;7.10;;;2.40;;
51146;SDS011;37207;53.060;18.726;2023-05-07T10:37:33;2.40;;;1.90;;
51146;SDS011;37207;53.060;18.726;2023-05-07T10:40:01;2.00;;;1.70;;
51146;SDS011;37207;53.060;18.726;2023-05-07T10:42:29;2.20;;;1.60;;
51146;SDS011;37207;53.060;18.726;2023-05-07T10:44:56;3.20;;;1.80;;
51146;SDS011;37207;53.060;18.726;2023-05-07T10:47:26;3.30;;;1.80;;
51146;SDS011;37207;53.060;18.726;2023-05-07T10:52:32;1.90;;;1.80;;
51146;SDS011;37207;53.060;18.726;2023-05-07T10:57:41;3.80;;;2.70;;
51146;SDS011;37207;53.060;18.726;2023-05-07T11:05:30;4.30;;;2.30;;
51146;SDS011;37207;53.060;18.726;2023-05-07T11:08:09;1.90;;;1.60;;
51146;SDS011;37207;53.060;18.726;2023-05-07T11:10:57;1.80;;;1.60;;
51146;SDS011;37207;53.060;18.726;2023-05-07T11:13:41;2.30;;;1.80;;
51146;SDS011;37207;53.060;18.726;2023-05-07T11:16:24;3.80;;;2.30;;
51146;SDS011;37207;53.060;18.726;2023-05-07T11:19:00;2.60;;;1.80;;
51146;SDS011;37207;53.060;18.726;2023-05-07T11:21:32;1.80;;;1.70;;
51146;SDS011;37207;53.060;18.726;2023-05-07T11:24:11;8.10;;;6.20;;
51146;SDS011;37207;53.060;18.726;2023-05-07T11:26:48;4.00;;;3.00;;
51146;SDS011;37207;53.060;18.726;2023-05-07T11:31:43;9.80;;;9.00;;
51146;SDS011;37207;53.060;18.726;2023-05-07T11:34:14;4.00;;;2.00;;
51146;SDS011;37207;53.060;18.726;2023-05-07T11:36:46;5.50;;;5.00;;
51146;SDS011;37207;53.060;18.726;2023-05-07T11:39:25;2.30;;;2.10;;
51146;SDS011;37207;53.060;18.726;2023-05-07T11:41:53;1.80;;;1.70;;
51146;SDS011;37207;53.060;18.726;2023-05-07T11:44:20;2.00;;;1.90;;
51146;SDS011;37207;53.060;18.726;2023-05-07T11:46:47;1.70;;;1.50;;
51146;SDS011;37207;53.060;18.726;2023-05-07T11:49:14;5.00;;;1.90;;
51146;SDS011;37207;53.060;18.726;2023-05-07T11:51:42;2.80;;;2.60;;
51146;SDS011;37207;53.060;18.726;2023-05-07T11:54:09;6.70;;;4.60;;
51146;SDS011;37207;53.060;18.726;2023-05-07T11:56:37;2.20;;;1.70;;
51146;SDS011;37207;53.060;18.726;2023-05-07T11:59:04;1.70;;;1.60;;
51146;SDS011;37207;53.060;18.726;2023-05-07T12:01:31;2.50;;;1.80;;
51146;SDS011;37207;53.060;18.726;2023-05-07T12:03:58;4.20;;;1.70;;
51146;SDS011;37207;53.060;18.726;2023-05-07T12:06:24;4.50;;;2.10;;
51146;SDS011;37207;53.060;18.726;2023-05-07T12:08:51;6.30;;;3.00;;
51146;SDS011;37207;53.060;18.726;2023-05-07T12:11:23;2.80;;;2.60;;
51146;SDS011;37207;53.060;18.726;2023-05-07T12:13:51;5.40;;;2.10;;
51146;SDS011;37207;53.060;18.726;2023-05-07T12:16:20;3.50;;;2.70;;
51146;SDS011;37207;53.060;18.726;2023-05-07T12:18:48;5.20;;;2.30;;
51146;SDS011;37207;53.060;18.726;2023-05-07T12:21:15;4.10;;;2.10;;
51146;SDS011;37207;53.060;18.726;2023-05-07T12:26:10;2.90;;;1.80;;
51146;SDS011;37207;53.060;18.726;2023-05-07T12:28:38;4.50;;;2.20;;
51146;SDS011;37207;53.060;18.726;2023-05-07T12:31:05;3.90;;;2.00;;
51146;SDS011;37207;53.060;18.726;2023-05-07T12:33:32;3.10;;;1.90;;
51146;SDS011;37207;53.060;18.726;2023-05-07T12:36:02;3.30;;;2.30;;
51146;SDS011;37207;53.060;18.726;2023-05-07T12:38:34;3.50;;;1.80;;
51146;SDS011;37207;53.060;18.726;2023-05-07T12:41:02;2.70;;;1.40;;
51146;SDS011;37207;53.060;18.726;2023-05-07T12:43:28;2.80;;;2.10;;
51146;SDS011;37207;53.060;18.726;2023-05-07T12:45:57;2.80;;;1.90;;
51146;SDS011;37207;53.060;18.726;2023-05-07T12:48:26;2.00;;;1.90;;
51146;SDS011;37207;53.060;18.726;2023-05-07T12:50:56;3.30;;;2.20;;
51146;SDS011;37207;53.060;18.726;2023-05-07T12:53:24;18.20;;;16.30;;
51146;SDS011;37207;53.060;18.726;2023-05-07T12:55:53;3.10;;;2.80;;
51146;SDS011;37207;53.060;18.726;2023-05-07T12:58:25;3.00;;;2.70;;
51146;SDS011;37207;53.060;18.726;2023-05-07T13:00:58;3.40;;;2.20;;
51146;SDS011;37207;53.060;18.726;2023-05-07T13:03:27;3.70;;;1.90;;
51146;SDS011;37207;53.060;18.726;2023-05-07T13:05:57;2.10;;;2.00;;
51146;SDS011;37207;53.060;18.726;2023-05-07T13:08:30;10.90;;;1.90;;
51146;SDS011;37207;53.060;18.726;2023-05-07T13:10:58;3.40;;;1.90;;
51146;SDS011;37207;53.060;18.726;2023-05-07T13:13:32;3.60;;;2.00;;
51146;SDS011;37207;53.060;18.726;2023-05-07T13:16:00;3.70;;;2.20;;
51146;SDS011;37207;53.060;18.726;2023-05-07T13:18:31;5.00;;;2.00;;
51146;SDS011;37207;53.060;18.726;2023-05-07T13:20:59;5.20;;;2.20;;
51146;SDS011;37207;53.060;18.726;2023-05-07T13:23:27;1.90;;;1.80;;
51146;SDS011;37207;53.060;18.726;2023-05-07T13:25:54;7.00;;;2.10;;
51146;SDS011;37207;53.060;18.726;2023-05-07T13:28:22;3.90;;;2.40;;
51146;SDS011;37207;53.060;18.726;2023-05-07T13:30:50;7.90;;;2.10;;
51146;SDS011;37207;53.060;18.726;2023-05-07T13:33:20;1.80;;;1.60;;
51146;SDS011;37207;53.060;18.726;2023-05-07T13:35:47;4.30;;;2.00;;
51146;SDS011;37207;53.060;18.726;2023-05-07T13:38:13;2.70;;;2.10;;
51146;SDS011;37207;53.060;18.726;2023-05-07T13:40:42;3.60;;;2.30;;
51146;SDS011;37207;53.060;18.726;2023-05-07T13:43:08;3.50;;;2.10;;
51146;SDS011;37207;53.060;18.726;2023-05-07T13:45:35;18.80;;;17.00;;
51146;SDS011;37207;53.060;18.726;2023-05-07T13:48:01;3.40;;;3.20;;
51146;SDS011;37207;53.060;18.726;2023-05-07T13:50:28;7.90;;;3.30;;
51146;SDS011;37207;53.060;18.726;2023-05-07T13:52:56;3.90;;;3.00;;
51146;SDS011;37207;53.060;18.726;2023-05-07T13:55:23;2.80;;;2.60;;
51146;SDS011;37207;53.060;18.726;2023-05-07T13:57:56;3.10;;;2.10;;
51146;SDS011;37207;53.060;18.726;2023-05-07T14:00:24;23.50;;;14.70;;
51146;SDS011;37207;53.060;18.726;2023-05-07T14:02:52;5.90;;;5.30;;
51146;SDS011;37207;53.060;18.726;2023-05-07T14:05:19;2.70;;;2.20;;
51146;SDS011;37207;53.060;18.726;2023-05-07T14:07:46;7.20;;;1.90;;
51146;SDS011;37207;53.060;18.726;2023-05-07T14:10:15;2.70;;;1.80;;
51146;SDS011;37207;53.060;18.726;2023-05-07T14:12:41;12.10;;;2.20;;
51146;SDS011;37207;53.060;18.726;2023-05-07T14:15:08;4.90;;;1.80;;
51146;SDS011;37207;53.060;18.726;2023-05-07T14:17:35;2.20;;;2.00;;
51146;SDS011;37207;53.060;18.726;2023-05-07T14:20:01;3.00;;;1.60;;
51146;SDS011;37207;53.060;18.726;2023-05-07T14:22:28;2.70;;;1.50;;
51146;SDS011;37207;53.060;18.726;2023-05-07T14:24:55;2.90;;;1.70;;
51146;SDS011;37207;53.060;18.726;2023-05-07T14:27:21;1.80;;;1.60;;
51146;SDS011;37207;53.060;18.726;2023-05-07T14:29:48;2.40;;;1.70;;
51146;SDS011;37207;53.060;18.726;2023-05-07T14:32:20;3.90;;;1.70;;
51146;SDS011;37207;53.060;18.726;2023-05-07T14:34:47;3.00;;;1.50;;
51146;SDS011;37207;53.060;18.726;2023-05-07T14:37:13;2.40;;;1.40;;
51146;SDS011;37207;53.060;18.726;2023-05-07T14:39:40;1.90;;;1.60;;
51146;SDS011;37207;53.060;18.726;2023-05-07T14:42:07;2.40;;;1.90;;
51146;SDS011;37207;53.060;18.726;2023-05-07T14:44:37;2.90;;;1.70;;
51146;SDS011;37207;53.060;18.726;2023-05-07T14:47:06;2.40;;;1.90;;
51146;SDS011;37207;53.060;18.726;2023-05-07T14:49:33;1.70;;;1.50;;
51146;SDS011;37207;53.060;18.726;2023-05-07T14:52:00;2.60;;;2.40;;